Time;durP1;ratioP1;P1;durP2;ratioP2;P2;SDS_P1;SDS_P2;PMS_P1;PMS_P2;Temp;Humidity;BMP_temperature;BMP_pressure;BME280_temperature;BME280_humidity;BME280_pressure;Samples;Min_cycle;Max_cycle;Signal;HPM_P1;HPM_P2
2022/04/02 00:02:16;;;;;;;15.58;7.17;;;;;;;2.52;49.92;99134.98;2070508;84;31228;-68
2022/04/02 00:05:18;;;;;;;19.17;7.42;;;;;;;2.52;50.01;99131.87;2061844;85;32940;-68
2022/04/02 00:08:20;;;;;;;18.60;6.70;;;;;;;2.51;49.67;99124.00;2066078;84;29633;-68
2022/04/02 00:11:22;;;;;;;21.62;7.25;;;;;;;2.50;49.88;99123.59;2098334;84;27770;-68
2022/04/02 00:14:23;;;;;;;16.52;6.33;;;;;;;2.47;50.01;99120.61;2071031;84;28653;-68
2022/04/02 00:17:25;;;;;;;15.78;6.67;;;;;;;2.47;50.03;99124.58;2057306;85;30999;-67
2022/04/02 00:20:27;;;;;;;15.03;6.42;;;;;;;2.44;49.60;99120.72;2066310;84;33729;-67
2022/04/02 00:23:40;;;;;;;14.05;6.25;;;;;;;2.41;49.79;99119.02;2098148;84;29623;-67
2022/04/02 00:26:42;;;;;;;13.78;5.67;;;;;;;2.41;49.99;99127.42;2068022;84;27632;-67
2022/04/02 00:29:44;;;;;;;19.70;6.70;;;;;;;2.39;49.60;99122.21;2082411;84;29626;-67
2022/04/02 00:32:46;;;;;;;11.57;6.17;;;;;;;2.37;49.65;99120.52;2089944;84;30877;-67
2022/04/02 00:35:48;;;;;;;12.95;5.60;;;;;;;2.33;49.88;99120.21;2090385;84;33780;-67
2022/04/02 00:38:50;;;;;;;14.10;6.15;;;;;;;2.33;49.86;99119.77;2090190;83;29703;-67
2022/04/02 00:41:53;;;;;;;15.05;6.40;;;;;;;2.33;50.05;99122.41;2085825;84;28373;-68
2022/04/02 00:44:55;;;;;;;16.95;6.37;;;;;;;2.32;50.16;99121.16;2100165;84;29551;-67
2022/04/02 00:47:57;;;;;;;14.13;5.83;;;;;;;2.32;50.22;99114.55;2100424;84;31857;-68
2022/04/02 00:51:01;;;;;;;15.95;6.65;;;;;;;2.32;50.38;99125.13;2095551;84;32952;-68
2022/04/02 00:54:03;;;;;;;15.58;5.78;;;;;;;2.31;50.29;99120.27;2098810;84;29646;-67
2022/04/02 00:57:05;;;;;;;12.82;5.85;;;;;;;2.26;50.37;99123.09;2097771;84;27642;-68
2022/04/02 01:00:08;;;;;;;14.55;6.03;;;;;;;2.25;50.43;99116.08;2097341;84;29697;-68
2022/04/02 01:03:11;;;;;;;11.10;5.15;;;;;;;2.21;50.41;99117.09;2100667;84;31263;-69
2022/04/02 01:06:13;;;;;;;9.45;5.05;;;;;;;2.21;50.61;99125.02;2100334;84;33895;-67
2022/04/02 01:09:15;;;;;;;10.80;5.72;;;;;;;2.17;50.39;99125.17;2098555;84;29634;-68
2022/04/02 01:12:16;;;;;;;10.70;4.78;;;;;;;2.11;50.24;99127.11;2102283;83;27636;-67
2022/04/02 01:15:18;;;;;;;14.75;5.22;;;;;;;2.07;50.83;99129.44;2133996;83;28646;-68
2022/04/02 01:18:20;;;;;;;12.18;5.17;;;;;;;2.05;51.05;99136.58;2086070;83;31015;-67
2022/04/02 01:21:22;;;;;;;9.43;5.53;;;;;;;2.04;51.05;99130.89;2063651;86;33733;-68
2022/04/02 01:24:23;;;;;;;15.13;5.25;;;;;;;2.03;51.10;99137.08;2079163;84;29652;-68
2022/04/02 01:27:28;;;;;;;25.15;6.40;;;;;;;2.02;51.29;99137.11;2100505;84;27693;-67
2022/04/02 01:30:31;;;;;;;11.10;5.15;;;;;;;2.01;51.50;99131.42;2100536;84;29455;-68
2022/04/02 01:33:36;;;;;;;12.10;5.15;;;;;;;1.98;51.40;99133.72;2099205;84;31965;-68
2022/04/02 01:36:38;;;;;;;12.65;5.22;;;;;;;1.97;51.51;99135.95;2074685;84;32982;-69
2022/04/02 01:39:40;;;;;;;13.05;5.10;;;;;;;1.95;51.58;99134.70;2069069;86;29683;-68
2022/04/02 01:42:42;;;;;;;9.23;4.35;;;;;;;1.94;51.45;99140.89;2068458;86;27677;-68
2022/04/02 01:45:43;;;;;;;12.28;5.00;;;;;;;1.94;51.50;99147.50;2070914;85;28517;-68
2022/04/02 01:48:48;;;;;;;9.58;4.90;;;;;;;1.93;51.41;99151.05;2071614;85;31018;-69
2022/04/02 01:51:50;;;;;;;13.60;5.35;;;;;;;1.93;51.49;99147.53;2074562;85;33033;-68
2022/04/02 01:54:51;;;;;;;15.95;6.20;;;;;;;1.91;51.57;99150.23;2068831;85;29629;-68
2022/04/02 01:57:53;;;;;;;14.45;5.22;;;;;;;1.90;51.58;99155.11;2038387;87;27693;-68
2022/04/02 02:00:55;;;;;;;10.45;5.00;;;;;;;1.89;51.84;99161.30;2071568;85;28631;-68
2022/04/02 02:03:57;;;;;;;12.33;5.75;;;;;;;1.90;52.18;99155.58;2038538;87;31042;-68
2022/04/02 02:06:59;;;;;;;11.15;5.40;;;;;;;1.87;52.48;99159.63;2073359;85;32925;-68
2022/04/02 02:10:01;;;;;;;14.47;5.78;;;;;;;1.81;52.62;99157.59;2093130;84;30448;-69
2022/04/02 02:13:03;;;;;;;10.68;5.37;;;;;;;1.76;52.91;99155.54;2072529;85;27693;-68
2022/04/02 02:16:05;;;;;;;12.55;6.10;;;;;;;1.74;53.27;99165.28;2103922;84;28823;-69
2022/04/02 02:19:07;;;;;;;15.15;5.58;;;;;;;1.68;53.75;99161.54;2056773;85;31051;-69
2022/04/02 02:22:08;;;;;;;9.45;5.00;;;;;;;1.62;53.99;99159.08;2101050;84;32958;-69
2022/04/02 02:25:13;;;;;;;9.95;5.58;;;;;;;1.56;54.59;99163.25;2101138;84;29629;-69
2022/04/02 02:28:15;;;;;;;13.55;6.17;;;;;;;1.50;54.65;99164.28;2098042;84;27548;-68
2022/04/02 02:31:17;;;;;;;16.37;6.08;;;;;;;1.40;55.07;99166.80;2059104;86;28683;-69
2022/04/02 02:37:39;;;;;;;13.45;6.17;;;;;;;1.18;56.08;99173.59;2071488;85;33019;-69
2022/04/02 02:40:41;;;;;;;9.10;5.78;;;;;;;1.06;56.32;99180.08;2025861;87;30131;-70
2022/04/02 02:43:43;;;;;;;11.38;6.00;;;;;;;1.00;57.03;99173.66;2044756;87;27701;-68
2022/04/02 02:46:44;;;;;;;10.50;6.03;;;;;;;0.97;56.98;99178.16;2032578;87;28081;-70
2022/04/02 02:49:46;;;;;;;12.10;5.80;;;;;;;0.93;57.11;99183.10;2044717;87;31102;-67
2022/04/02 02:52:48;;;;;;;12.25;6.15;;;;;;;0.85;57.79;99190.80;2044738;87;33733;-70
2022/04/02 02:55:50;;;;;;;16.87;6.47;;;;;;;0.80;57.57;99185.24;2044661;87;29618;-68
2022/04/02 02:58:51;;;;;;;13.28;6.78;;;;;;;0.74;57.78;99189.77;2080163;83;27766;-68
2022/04/02 03:01:53;;;;;;;12.60;7.03;;;;;;;0.71;58.70;99194.27;2064678;84;28332;-68
2022/04/02 03:04:55;;;;;;;10.98;5.78;;;;;;;0.66;58.70;99204.94;2074537;84;30539;-68
2022/04/02 03:07:57;;;;;;;14.68;7.15;;;;;;;0.59;60.02;99206.00;2073627;85;32956;-69
2022/04/02 03:11:00;;;;;;;10.48;6.50;;;;;;;0.54;59.08;99207.45;2069027;85;30466;-69
2022/04/02 03:14:03;;;;;;;10.98;6.17;;;;;;;0.53;59.50;99205.71;2028645;87;27693;-70
2022/04/02 03:17:05;;;;;;;20.52;7.30;;;;;;;0.50;59.77;99211.53;2017393;87;29135;-70
2022/04/02 03:20:08;;;;;;;16.40;6.83;;;;;;;0.43;59.94;99212.98;2044322;87;31045;-68
2022/04/02 03:23:11;;;;;;;17.60;6.92;;;;;;;0.40;60.30;99222.28;2044799;87;33880;-68
2022/04/02 03:26:14;;;;;;;12.05;6.65;;;;;;;0.38;60.18;99213.55;2044521;87;30442;-69
2022/04/02 03:29:16;;;;;;;16.12;7.15;;;;;;;0.38;60.22;99208.75;2097466;84;27699;-70
2022/04/02 03:32:18;;;;;;;13.95;6.75;;;;;;;0.37;61.26;99217.55;2071511;85;28123;-69
2022/04/02 03:35:21;;;;;;;20.23;9.45;;;;;;;0.34;60.62;99219.79;2079890;84;31878;-69
2022/04/02 03:38:24;;;;;;;16.65;7.50;;;;;;;0.33;60.91;99219.84;2100223;83;33028;-70
2022/04/02 03:41:26;;;;;;;15.88;6.80;;;;;;;0.33;60.75;99225.11;2098199;84;30479;-69
2022/04/02 03:44:28;;;;;;;15.80;7.67;;;;;;;0.30;61.21;99225.59;2098614;84;27719;-67
2022/04/02 03:47:31;;;;;;;13.98;7.10;;;;;;;0.29;61.02;99223.87;2100137;84;29497;-68
2022/04/02 03:50:34;;;;;;;14.75;7.65;;;;;;;0.28;61.28;99223.92;2066861;84;31445;-67
2022/04/02 03:53:35;;;;;;;11.45;6.83;;;;;;;0.30;61.32;99227.38;2099558;84;33249;-67
2022/04/02 03:56:37;;;;;;;14.15;7.05;;;;;;;0.33;61.28;99230.38;2100096;84;30008;-69
2022/04/02 03:59:40;;;;;;;16.00;8.18;;;;;;;0.37;61.44;99228.09;2097892;84;27773;-68
2022/04/02 04:02:42;;;;;;;15.63;7.90;;;;;;;0.39;61.62;99223.19;2098644;84;29588;-68
2022/04/02 04:05:44;;;;;;;14.40;8.30;;;;;;;0.40;62.02;99223.60;2098718;84;31991;-70
2022/04/02 04:08:47;;;;;;;18.85;8.70;;;;;;;0.37;62.41;99221.03;2098357;84;32950;-70
2022/04/02 04:11:49;;;;;;;15.10;7.30;;;;;;;0.39;62.27;99232.41;2100469;84;29634;-67
2022/04/02 04:14:50;;;;;;;18.17;7.87;;;;;;;0.38;62.98;99233.78;2104596;83;28409;-68
2022/04/02 04:17:52;;;;;;;14.53;7.42;;;;;;;0.35;62.44;99237.33;2099829;84;28625;-69
2022/04/02 04:20:54;;;;;;;16.57;8.35;;;;;;;0.34;62.66;99246.14;2099742;84;30773;-69
2022/04/02 04:23:56;;;;;;;12.28;7.55;;;;;;;0.30;62.76;99243.19;2100550;84;33585;-70
2022/04/02 04:26:59;;;;;;;22.07;8.13;;;;;;;0.24;63.00;99249.48;2057073;84;30619;-67
2022/04/02 04:30:00;;;;;;;14.10;6.85;;;;;;;0.16;62.68;99244.83;2084436;84;27644;-70
2022/04/02 04:33:03;;;;;;;13.85;7.62;;;;;;;0.15;62.95;99254.95;2099691;84;29548;-68
2022/04/02 04:36:06;;;;;;;13.98;7.45;;;;;;;0.11;62.81;99256.80;2084865;84;32256;-69
2022/04/02 04:39:07;;;;;;;10.50;6.78;;;;;;;0.07;62.85;99262.19;2022921;88;33028;-70
2022/04/02 04:42:09;;;;;;;15.08;7.80;;;;;;;0.04;62.96;99263.09;2023472;86;30585;-69
2022/04/02 04:45:11;;;;;;;13.08;6.95;;;;;;;0.03;62.90;99260.05;2021371;88;28011;-71
2022/04/02 04:48:13;;;;;;;12.65;6.85;;;;;;;0.03;63.06;99265.31;2023003;86;28589;-68
2022/04/02 04:51:15;;;;;;;14.78;8.08;;;;;;;0.03;63.32;99265.31;2055926;85;31009;-68
2022/04/02 04:54:16;;;;;;;14.73;7.12;;;;;;;0.05;63.57;99267.93;2056538;85;32930;-67
2022/04/02 04:57:18;;;;;;;19.20;8.08;;;;;;;0.07;63.51;99269.62;2056603;86;29623;-71
2022/04/02 05:00:22;;;;;;;19.77;9.15;;;;;;;0.09;63.72;99267.81;2056108;86;27609;-71
2022/04/02 05:03:25;;;;;;;22.42;13.28;;;;;;;0.08;63.88;99273.98;2050937;86;28733;-71
2022/04/02 05:06:26;;;;;;;31.55;15.58;;;;;;;0.12;64.12;99277.41;2050535;86;31816;-68
2022/04/02 05:09:28;;;;;;;20.50;11.57;;;;;;;0.16;64.19;99276.91;2043475;86;33027;-72
2022/04/02 05:12:31;;;;;;;12.85;8.05;;;;;;;0.18;64.23;99275.95;2021579;87;30406;-70
2022/04/02 05:15:34;;;;;;;15.15;8.40;;;;;;;0.20;64.32;99274.16;2021896;87;27701;-71
2022/04/02 05:18:36;;;;;;;20.20;8.75;;;;;;;0.24;64.41;99271.87;2032091;87;28085;-74
2022/04/02 05:21:37;;;;;;;16.80;8.78;;;;;;;0.26;64.53;99273.98;2036406;86;31009;-69
2022/04/02 05:24:39;;;;;;;13.95;8.68;;;;;;;0.27;64.46;99275.72;2021639;88;32933;-67
2022/04/02 05:27:41;;;;;;;19.05;8.63;;;;;;;0.29;64.67;99277.87;2021023;88;29463;-73
2022/04/02 05:30:43;;;;;;;17.73;8.70;;;;;;;0.30;64.41;99273.02;2029183;86;27626;-68
2022/04/02 05:33:45;;;;;;;17.57;8.85;;;;;;;0.32;64.55;99276.06;2053548;85;28705;-68
2022/04/02 05:36:47;;;;;;;12.58;7.97;;;;;;;0.34;64.45;99273.80;2072725;84;31870;-76
2022/04/02 05:39:49;;;;;;;17.73;8.73;;;;;;;0.37;64.47;99284.73;2100050;84;33031;-73
2022/04/02 05:42:52;;;;;;;15.80;7.55;;;;;;;0.40;64.45;99288.61;2099537;84;29672;-71
2022/04/02 05:45:54;;;;;;;14.95;8.00;;;;;;;0.37;64.19;99283.41;2099067;84;27833;-71
2022/04/02 05:48:57;;;;;;;12.73;7.55;;;;;;;0.37;63.99;99272.88;2092172;84;28494;-72
2022/04/02 05:52:00;;;;;;;15.70;7.87;;;;;;;0.37;63.92;99278.14;2071376;85;31748;-74
2022/04/02 05:55:02;;;;;;;13.65;7.42;;;;;;;0.37;63.65;99280.78;2100085;83;33679;-71
2022/04/02 05:58:05;;;;;;;17.07;8.40;;;;;;;0.38;63.46;99278.09;2100167;84;30804;-75
2022/04/02 06:01:07;;;;;;;27.95;7.87;;;;;;;0.41;63.37;99283.30;2100041;84;27679;-75
2022/04/02 06:04:10;;;;;;;18.30;9.48;;;;;;;0.46;63.06;99284.49;2100330;84;28669;-72
2022/04/02 06:07:12;;;;;;;12.63;6.80;;;;;;;0.56;63.10;99284.70;2097676;84;32214;-71
2022/04/02 06:10:14;;;;;;;14.90;6.92;;;;;;;0.65;62.96;99289.30;2097461;84;33665;-72
2022/04/02 06:13:16;;;;;;;17.60;7.15;;;;;;;0.77;62.96;99283.71;2098515;84;29716;-73
2022/04/02 06:16:19;;;;;;;20.48;9.93;;;;;;;0.91;62.49;99294.75;2100434;84;27627;-73
2022/04/02 06:19:21;;;;;;;13.50;7.40;;;;;;;1.01;62.44;99291.89;2099553;84;29563;-68
2022/04/02 06:22:23;;;;;;;13.90;7.33;;;;;;;1.10;61.83;99296.05;2066449;84;31835;-72
2022/04/02 06:25:24;;;;;;;12.85;7.10;;;;;;;1.19;61.33;99290.52;2055336;86;34196;-75
2022/04/02 06:28:27;;;;;;;15.58;6.92;;;;;;;1.29;60.72;99299.92;2061412;84;29535;-72
2022/04/02 06:31:28;;;;;;;14.00;6.60;;;;;;;1.40;60.61;99304.02;2100631;84;27708;-68
2022/04/02 06:34:30;;;;;;;12.85;6.25;;;;;;;1.53;60.06;99293.52;2100433;83;29256;-70
2022/04/02 06:37:37;;;;;;;10.82;6.60;;;;;;;1.69;59.95;99300.99;2100112;84;31894;-69
2022/04/02 06:40:39;;;;;;;12.58;5.85;;;;;;;1.85;59.28;99304.91;2079794;84;33016;-70
2022/04/02 06:43:41;;;;;;;15.68;7.70;;;;;;;1.95;58.90;99299.77;2100397;84;30510;-71
2022/04/02 06:46:43;;;;;;;15.72;5.83;;;;;;;2.10;58.59;99299.73;2099769;84;27671;-71
2022/04/02 06:49:45;;;;;;;11.73;6.17;;;;;;;2.21;57.90;99302.05;2100113;84;29899;-71
2022/04/02 06:52:47;;;;;;;14.75;6.75;;;;;;;2.19;57.04;99308.31;2100632;84;32205;-73
2022/04/02 06:55:49;;;;;;;9.68;5.85;;;;;;;2.14;55.57;99303.17;2100113;84;34182;-72
2022/04/02 06:58:51;;;;;;;12.33;5.75;;;;;;;2.11;56.13;99304.11;2100582;84;29620;-69
2022/04/02 07:01:52;;;;;;;12.80;5.65;;;;;;;2.16;55.29;99307.92;2100625;84;27588;-69
2022/04/02 07:04:54;;;;;;;9.20;5.37;;;;;;;2.23;55.69;99309.48;2100239;84;28988;-71
2022/04/02 07:07:56;;;;;;;16.80;7.28;;;;;;;2.21;53.89;99309.98;2100392;84;31022;-71
2022/04/02 07:10:58;;;;;;;9.15;5.33;;;;;;;2.29;55.97;99315.02;2098017;84;33819;-64
2022/04/02 07:14:00;;;;;;;10.38;5.17;;;;;;;2.41;55.59;99315.09;2100402;84;30408;-67
2022/04/02 07:17:02;;;;;;;11.48;4.70;;;;;;;2.53;54.25;99317.33;2099240;84;27627;-66
2022/04/02 07:20:06;;;;;;;10.43;5.58;;;;;;;2.51;53.70;99323.59;2084471;84;29958;-63
2022/04/02 07:23:09;;;;;;;8.88;5.05;;;;;;;2.57;54.55;99320.29;2100125;84;31032;-64
2022/04/02 07:26:12;;;;;;;12.45;4.80;;;;;;;2.61;53.01;99319.72;2077707;84;32986;-64
2022/04/02 07:29:15;;;;;;;9.73;5.00;;;;;;;2.61;53.33;99325.02;2078506;84;29874;-64
2022/04/02 07:32:19;;;;;;;10.25;4.83;;;;;;;2.62;53.09;99329.86;2100778;83;27680;-65
2022/04/02 07:35:21;;;;;;;11.28;5.17;;;;;;;2.61;52.90;99332.09;2100629;84;29385;-67
2022/04/02 07:38:40;;;;;;;7.00;4.30;;;;;;;2.70;53.14;99331.34;2099390;84;30810;-63
2022/04/02 07:41:56;;;;;;;12.25;5.28;;;;;;;2.86;53.35;99332.14;2081525;84;33212;-63
2022/04/02 07:45:13;;;;;;;8.05;4.37;;;;;;;3.07;52.67;99335.84;2074626;84;31093;-63
2022/04/02 07:48:14;;;;;;;7.20;4.05;;;;;;;3.17;52.50;99338.55;2073905;84;27725;-62
2022/04/02 07:51:18;;;;;;;9.40;4.83;;;;;;;3.23;51.13;99345.89;2065775;86;29285;-64
2022/04/02 07:54:26;;;;;;;10.53;4.80;;;;;;;3.16;51.77;99335.98;2065788;84;31163;-63
2022/04/02 07:57:41;;;;;;;10.68;5.05;;;;;;;3.23;51.01;99345.41;2081617;84;32962;-64
2022/04/02 08:00:46;;;;;;;13.75;5.35;;;;;;;3.23;51.56;99336.63;2099835;84;30071;-64
2022/04/02 08:03:48;;;;;;;8.23;4.17;;;;;;;3.24;51.63;99341.84;2077441;84;27687;-61
2022/04/02 08:06:51;;;;;;;8.20;4.28;;;;;;;3.43;51.68;99343.84;2100736;84;29380;-63
2022/04/02 08:09:54;;;;;;;9.63;6.05;;;;;;;3.58;51.59;99339.32;2073457;84;31451;-62
2022/04/02 08:12:57;;;;;;;9.13;4.58;;;;;;;3.72;51.80;99344.59;2055661;84;34209;-62
2022/04/02 08:16:00;;;;;;;8.45;4.53;;;;;;;3.95;51.41;99346.38;2076736;84;30500;-63
2022/04/02 08:19:03;;;;;;;10.03;4.22;;;;;;;4.09;51.28;99349.37;2100301;84;27751;-63
2022/04/02 08:22:05;;;;;;;11.05;4.87;;;;;;;4.19;50.32;99346.34;2100390;84;28738;-62
2022/04/02 08:25:08;;;;;;;8.98;5.28;;;;;;;4.28;50.83;99347.33;2095513;84;32201;-63
2022/04/02 08:28:27;;;;;;;10.48;6.25;;;;;;;4.45;48.87;99357.25;2081463;84;33391;-64
2022/04/02 08:31:58;;;;;;;13.03;5.72;;;;;;;4.54;48.85;99349.39;2098259;84;30836;-64
2022/04/02 08:35:07;;;;;;;10.88;6.80;;;;;;;4.60;48.68;99353.59;1978757;88;28370;-63
2022/04/02 08:38:40;;;;;;;9.30;5.67;;;;;;;4.63;49.65;99358.77;2004963;88;29518;-69
2022/04/02 08:42:11;;;;;;;9.40;5.05;;;;;;;4.75;50.11;99356.94;1999727;88;31607;-61
2022/04/02 08:45:14;;;;;;;9.63;4.53;;;;;;;4.98;49.55;99352.00;2011182;88;34264;-63
2022/04/02 08:48:27;;;;;;;12.35;6.47;;;;;;;5.16;49.54;99355.69;2010806;88;29936;-64
2022/04/02 08:51:34;;;;;;;12.60;5.70;;;;;;;5.22;48.88;99354.55;2011419;88;27877;-62
2022/04/02 08:54:59;;;;;;;11.35;5.37;;;;;;;5.47;48.98;99365.42;1983945;88;29503;-62
2022/04/02 08:58:39;;;;;;;10.43;4.95;;;;;;;5.56;48.21;99368.14;1984987;88;30848;-63
2022/04/02 09:01:49;;;;;;;10.95;5.10;;;;;;;5.71;48.34;99364.80;1978908;89;33113;-65
2022/04/02 09:05:06;;;;;;;10.13;4.12;;;;;;;5.80;46.42;99370.17;1987201;88;30706;-62
2022/04/02 09:09:03;;;;;;;8.15;4.58;;;;;;;5.67;45.56;99362.36;2005617;88;28317;-61
2022/04/02 09:12:53;;;;;;;8.38;4.60;;;;;;;5.76;47.15;99373.92;2037077;86;30883;-65
2022/04/02 09:16:09;;;;;;;9.30;5.05;;;;;;;5.85;46.69;99374.83;2094937;85;32261;-62
2022/04/02 09:19:15;;;;;;;10.25;5.50;;;;;;;5.98;47.11;99367.61;2063451;84;32998;-69
2022/04/02 09:22:51;;;;;;;8.78;6.28;;;;;;;6.08;46.71;99371.15;1963332;90;30806;-61
2022/04/02 09:26:33;;;;;;;7.33;5.03;;;;;;;6.25;46.60;99373.97;1925687;91;27598;-62
2022/04/02 09:29:59;;;;;;;7.42;5.72;;;;;;;6.41;45.98;99372.77;1966224;90;29206;-62
2022/04/02 09:33:41;;;;;;;9.48;5.80;;;;;;;6.57;46.42;99373.75;1966976;90;31933;-61
2022/04/02 09:37:19;;;;;;;10.90;5.55;;;;;;;6.63;45.44;99393.88;1950325;89;32988;-62
2022/04/02 09:40:25;;;;;;;12.18;5.33;;;;;;;6.50;45.73;99385.16;1889156;93;29009;-60
2022/04/02 09:43:35;;;;;;;12.30;6.10;;;;;;;6.51;43.85;99389.55;1885379;94;27903;-60
2022/04/02 09:47:05;;;;;;;11.85;6.08;;;;;;;6.50;44.52;99389.16;1916187;92;29941;-61
2022/04/02 09:50:24;;;;;;;8.38;5.42;;;;;;;6.53;44.16;99385.02;1843434;95;31253;-61
2022/04/02 09:53:32;;;;;;;9.43;5.65;;;;;;;6.71;44.86;99379.75;1836933;95;34188;-61
2022/04/02 09:56:37;;;;;;;11.53;5.17;;;;;;;6.95;44.45;99377.69;1861357;95;30356;-63
2022/04/02 09:59:59;;;;;;;11.33;6.28;;;;;;;7.01;44.61;99376.52;1904305;91;27871;-60
2022/04/02 10:03:10;;;;;;;10.13;5.45;;;;;;;6.94;45.42;99375.11;1899849;93;30028;-61
2022/04/02 10:06:37;;;;;;;12.63;5.60;;;;;;;6.67;43.76;99385.70;1943752;91;31134;-60
2022/04/02 10:09:41;;;;;;;8.30;5.47;;;;;;;6.48;44.32;99385.70;1899893;93;33351;-64
2022/04/02 10:12:47;;;;;;;12.93;6.35;;;;;;;6.40;43.87;99382.56;1943766;91;30087;-60
2022/04/02 10:15:50;;;;;;;11.83;6.70;;;;;;;6.39;45.23;99389.66;1906241;90;28544;-65
2022/04/02 10:18:58;;;;;;;12.88;6.70;;;;;;;6.51;44.90;99386.89;1944170;90;29911;-61
2022/04/02 10:22:07;;;;;;;9.83;6.28;;;;;;;6.62;44.65;99386.86;2032605;86;32207;-59
2022/04/02 10:25:13;;;;;;;11.45;6.47;;;;;;;6.67;44.72;99379.50;2085348;84;33820;-61
2022/04/02 10:28:17;;;;;;;14.47;6.30;;;;;;;6.74;44.61;99376.06;2078555;85;29625;-59
2022/04/02 10:31:56;;;;;;;10.60;6.15;;;;;;;6.77;44.57;99375.47;2078405;85;27663;-61
2022/04/02 10:35:07;;;;;;;12.03;6.28;;;;;;;6.82;44.90;99379.23;2094252;85;29480;-61
2022/04/02 10:38:12;;;;;;;13.55;6.75;;;;;;;6.81;44.64;99378.84;2084803;84;31986;-62
2022/04/02 10:41:17;;;;;;;10.15;6.70;;;;;;;6.82;44.11;99377.91;2073316;85;33010;-60
2022/04/02 10:44:39;;;;;;;14.53;7.08;;;;;;;6.79;44.96;99380.70;2071445;85;30459;-63
2022/04/02 10:47:56;;;;;;;12.98;6.58;;;;;;;6.93;45.11;99380.04;2033153;87;27746;-62
2022/04/02 10:50:58;;;;;;;8.85;6.10;;;;;;;7.08;44.73;99378.39;2073039;85;28685;-60
2022/04/02 10:54:16;;;;;;;11.00;5.33;;;;;;;7.20;43.99;99373.77;2069758;85;32074;-59
2022/04/02 10:57:13;;;;;;;14.07;6.10;;;;;;;7.22;44.22;99372.38;2046851;84;33681;-61
2022/04/02 11:00:16;;;;;;;10.78;5.90;;;;;;;7.26;44.84;99365.48;2074466;85;29776;-62
2022/04/02 11:03:30;;;;;;;9.13;5.97;;;;;;;7.37;44.26;99367.59;2074555;85;27634;-65
2022/04/02 11:06:47;;;;;;;14.78;6.75;;;;;;;7.32;44.08;99358.97;2073309;85;29913;-64
2022/04/02 11:09:52;;;;;;;15.95;6.67;;;;;;;7.36;43.73;99352.55;2074158;84;30842;-61
2022/04/02 11:13:01;;;;;;;13.70;5.97;;;;;;;7.31;43.19;99353.25;2063897;85;33603;-63
2022/04/02 11:16:05;;;;;;;16.42;5.58;;;;;;;7.36;43.70;99358.36;2057255;85;30833;-64
2022/04/02 11:22:42;;;;;;;13.03;6.35;;;;;;;7.64;43.51;99360.42;2048642;85;29168;-61
2022/04/02 11:25:52;;;;;;;14.98;6.42;;;;;;;7.83;42.73;99365.66;2039906;87;30943;-61
2022/04/02 11:28:56;;;;;;;11.10;5.72;;;;;;;8.01;42.67;99356.28;2029148;86;34149;-62
2022/04/02 11:32:00;;;;;;;19.20;5.80;;;;;;;8.06;41.40;99360.41;2044356;87;30523;-60
2022/04/02 11:35:02;;;;;;;15.50;6.22;;;;;;;8.03;41.00;99353.91;2060751;84;27539;-62
2022/04/02 11:38:25;;;;;;;15.70;6.53;;;;;;;8.12;41.93;99362.34;2019640;84;29868;-62
2022/04/02 11:41:36;;;;;;;14.43;4.65;;;;;;;8.19;41.19;99351.73;2050544;85;32317;-60
2022/04/02 11:44:38;;;;;;;12.50;5.37;;;;;;;8.11;40.53;99354.82;2011185;88;33728;-61
2022/04/02 11:47:48;;;;;;;11.35;5.92;;;;;;;8.16;41.76;99350.56;1977505;90;30718;-62
2022/04/02 11:50:50;;;;;;;16.00;5.35;;;;;;;8.20;41.34;99352.97;1977006;90;27549;-61
2022/04/02 11:53:53;;;;;;;11.28;5.20;;;;;;;8.23;40.73;99345.74;1978024;89;29706;-61
2022/04/02 11:57:10;;;;;;;17.95;6.03;;;;;;;8.28;39.90;99347.20;1969475;87;31499;-63
2022/04/02 12:00:15;;;;;;;17.82;5.85;;;;;;;8.41;40.97;99340.72;2030217;87;33360;-61
2022/04/02 12:03:27;;;;;;;19.15;6.28;;;;;;;8.49;40.01;99343.86;2030204;87;30425;-64
2022/04/02 12:06:35;;;;;;;18.62;5.35;;;;;;;8.64;40.54;99343.94;2004650;87;27799;-68
2022/04/02 12:09:52;;;;;;;15.20;5.28;;;;;;;8.78;40.49;99345.79;2037052;86;29513;-60
2022/04/02 12:12:58;;;;;;;16.90;5.47;;;;;;;8.83;39.44;99346.39;2023169;86;31863;-61
2022/04/02 12:16:13;;;;;;;10.23;5.17;;;;;;;8.89;40.06;99322.02;2022058;87;32958;-61
2022/04/02 12:19:12;;;;;;;19.85;5.92;;;;;;;8.91;39.06;99356.17;2023663;87;29653;-61
2022/04/02 12:22:27;;;;;;;22.50;4.97;;;;;;;8.82;37.76;99348.68;2047049;86;27691;-62
2022/04/02 12:25:29;;;;;;;15.23;4.87;;;;;;;8.81;39.16;99354.97;2035309;86;29539;-62
2022/04/02 12:28:33;;;;;;;19.65;5.30;;;;;;;8.85;38.90;99348.51;2010699;86;31400;-63
2022/04/02 12:31:35;;;;;;;21.40;5.47;;;;;;;8.92;39.41;99362.36;2030116;87;32970;-63
2022/04/02 12:34:38;;;;;;;17.40;5.80;;;;;;;8.84;37.84;99356.62;2029079;86;30006;-68
2022/04/02 12:37:49;;;;;;;23.50;5.50;;;;;;;8.79;38.96;99352.86;2012874;87;27677;-71
2022/04/02 12:40:50;;;;;;;15.48;5.80;;;;;;;8.84;38.52;99343.27;2038107;86;29946;-66
2022/04/02 12:44:03;;;;;;;17.42;5.87;;;;;;;9.03;37.56;99359.08;2042461;87;32204;-68
2022/04/02 12:47:12;;;;;;;24.70;8.03;;;;;;;9.14;37.49;99349.94;2068980;86;33022;-69
2022/04/02 12:50:16;;;;;;;15.18;6.85;;;;;;;9.17;38.37;99341.75;2039166;87;29634;-70
2022/04/02 12:53:36;;;;;;;15.93;5.25;;;;;;;9.29;38.51;99342.84;2071212;85;27619;-68
2022/04/02 12:56:38;;;;;;;25.52;6.10;;;;;;;9.37;37.79;99355.73;2066697;85;28649;-63
2022/04/02 12:59:52;;;;;;;21.73;6.08;;;;;;;9.26;36.22;99351.91;1991514;89;31482;-68
2022/04/02 13:03:02;;;;;;;14.53;4.25;;;;;;;9.09;35.04;99361.39;2059005;86;32971;-61
2022/04/02 13:06:04;;;;;;;16.62;4.47;;;;;;;8.91;36.80;99346.83;2087439;84;29644;-64
2022/04/02 13:09:21;;;;;;;26.85;4.65;;;;;;;8.90;35.56;99357.58;2096290;84;27656;-67
2022/04/02 13:12:24;;;;;;;21.12;5.15;;;;;;;8.90;35.65;99353.12;2043457;85;27998;-67
2022/04/02 13:15:28;;;;;;;27.27;4.53;;;;;;;8.85;34.60;99353.84;2045638;86;31502;-61
2022/04/02 13:21:58;;;;;;;18.73;4.42;;;;;;;8.80;35.82;99350.58;2042252;86;30213;-61
2022/04/02 13:25:01;;;;;;;17.02;3.15;;;;;;;8.90;34.75;99349.11;2042990;87;28153;-66
2022/04/02 13:28:36;;;;;;;13.75;4.53;;;;;;;8.92;33.96;99356.56;2100133;84;28697;-64
2022/04/02 13:31:59;;;;;;;24.63;5.70;;;;;;;8.91;33.32;99360.64;2065693;85;30804;-64
2022/04/02 13:35:40;;;;;;;24.72;4.78;;;;;;;8.83;32.01;99365.09;2100072;84;34162;-65
2022/04/02 13:39:01;;;;;;;19.10;3.77;;;;;;;8.81;32.85;99370.53;2074538;85;29473;-61
2022/04/02 13:42:08;;;;;;;7.37;2.87;;;;;;;8.86;32.27;99382.73;2098019;84;27825;-60
2022/04/02 13:45:12;;;;;;;15.00;3.95;;;;;;;8.89;33.02;99371.88;2101747;83;28692;-67
2022/04/02 13:48:15;;;;;;;21.70;3.42;;;;;;;8.96;33.24;99372.77;2100629;84;31051;-64
2022/04/02 13:51:19;;;;;;;18.57;3.25;;;;;;;9.02;31.70;99369.37;2100123;84;33635;-64
2022/04/02 13:54:37;;;;;;;15.80;4.47;;;;;;;8.97;32.48;99370.98;2100493;84;30814;-61
2022/04/02 13:57:40;;;;;;;21.70;4.83;;;;;;;8.96;31.80;99375.94;2076848;84;27785;-64
2022/04/02 14:00:43;;;;;;;13.05;4.53;;;;;;;8.99;32.98;99377.56;2100363;84;28957;-65
2022/04/02 14:03:47;;;;;;;18.57;5.45;;;;;;;9.07;31.71;99387.34;2100088;84;32456;-61
2022/04/02 14:06:51;;;;;;;19.87;4.42;;;;;;;9.09;32.04;99385.45;2058870;84;33100;-63
2022/04/02 14:09:54;;;;;;;28.75;4.80;;;;;;;9.14;31.41;99385.16;2061442;83;30012;-65
2022/04/02 14:12:58;;;;;;;29.15;4.08;;;;;;;9.20;32.33;99377.65;2126189;83;27756;-67
2022/04/02 14:16:03;;;;;;;25.15;3.98;;;;;;;9.20;31.01;99379.44;2100122;84;28897;-59
2022/04/02 14:19:10;;;;;;;22.45;3.95;;;;;;;9.13;31.17;99392.30;2064909;86;31839;-60
2022/04/02 14:22:21;;;;;;;24.75;3.60;;;;;;;9.13;31.32;99401.66;2089733;84;34186;-59
2022/04/02 14:26:10;;;;;;;14.78;3.25;;;;;;;9.10;31.12;99395.18;2100211;84;29733;-61
2022/04/02 14:29:38;;;;;;;30.68;4.75;;;;;;;9.10;31.62;99393.84;2094352;84;27748;-60
2022/04/02 14:33:37;;;;;;;33.25;4.67;;;;;;;9.08;31.20;99398.41;2091897;84;28813;-61
2022/04/02 14:36:53;;;;;;;17.82;3.33;;;;;;;9.11;31.80;99399.55;2066918;84;32253;-59
2022/04/02 14:40:36;;;;;;;17.25;3.60;;;;;;;9.09;31.16;99409.48;2012887;88;33468;-60
2022/04/02 14:44:27;;;;;;;25.05;4.40;;;;;;;8.99;30.00;99407.82;1981322;89;30293;-60
2022/04/02 14:47:49;;;;;;;26.37;3.87;;;;;;;9.00;31.40;99404.66;1981354;89;27744;-60
2022/04/02 14:51:41;;;;;;;18.10;3.75;;;;;;;9.00;31.18;99412.67;1980930;89;29300;-60
2022/04/02 14:55:32;;;;;;;25.92;4.28;;;;;;;9.02;31.94;99410.78;1981235;89;32355;-60